Time;durP1;ratioP1;P1;durP2;ratioP2;P2;SDS_P1;SDS_P2;PMS_P1;PMS_P2;Temp;Humidity;BMP_temperature;BMP_pressure;BME280_temperature;BME280_humidity;BME280_pressure;Samples;Min_cycle;Max_cycle;Signal;HPM_P1;HPM_P2
2023/04/01 00:04:58;;;;;;;2.67;0.90;;;;;;;8.97;100.00;96578.09;15281543;19;20019;-47
2023/04/01 00:10:32;;;;;;;2.15;0.70;;;;;;;8.93;100.00;96577.66;15280366;19;20015;-45
2023/04/01 00:15:58;;;;;;;1.65;0.60;;;;;;;8.94;100.00;96574.78;15280078;19;20370;-47
2023/04/01 00:21:36;;;;;;;2.42;0.88;;;;;;;9.00;100.00;96566.94;15277165;19;20018;-46
2023/04/01 00:27:04;;;;;;;2.83;0.90;;;;;;;8.99;100.00;96558.06;15282676;19;20015;-43
2023/04/01 00:32:28;;;;;;;2.47;0.70;;;;;;;9.06;100.00;96563.47;15278083;19;20010;-46
2023/04/01 00:37:53;;;;;;;2.10;0.60;;;;;;;9.07;100.00;96565.16;15273021;19;20018;-46
2023/04/01 00:43:25;;;;;;;1.42;0.52;;;;;;;9.11;100.00;96555.69;15281301;19;20030;-44
2023/04/01 00:48:51;;;;;;;;;;;;;;;9.08;100.00;96556.06;15277216;19;20081;-45
2023/04/01 00:54:16;;;;;;;2.25;0.80;;;;;;;9.13;100.00;96569.72;15282108;19;19925;-46
2023/04/01 00:59:47;;;;;;;2.20;0.90;;;;;;;9.11;100.00;96555.69;15272408;19;20612;-44
2023/04/01 01:05:13;;;;;;;1.63;0.70;;;;;;;9.14;100.00;96555.25;15279727;19;20014;-46
2023/04/01 01:10:41;;;;;;;2.38;0.70;;;;;;;9.13;100.00;96558.97;15273148;19;20014;-47
2023/04/01 01:16:13;;;;;;;2.08;0.80;;;;;;;9.11;100.00;96553.00;15276095;19;20010;-47
2023/04/01 01:22:12;;;;;;;1.70;0.70;;;;;;;9.05;100.00;96543.88;15276343;19;20019;-47
2023/04/01 01:27:38;;;;;;;1.35;0.90;;;;;;;9.04;100.00;96544.88;15279120;19;20025;-48
2023/04/01 01:33:30;;;;;;;2.15;0.80;;;;;;;9.01;100.00;96547.13;15277151;19;20026;-48
2023/04/01 01:39:00;;;;;;;1.92;0.80;;;;;;;9.04;100.00;96538.69;15276879;19;20025;-47
2023/04/01 01:44:29;;;;;;;4.15;0.88;;;;;;;9.05;100.00;96534.97;15277454;19;20026;-49
2023/04/01 01:49:55;;;;;;;2.17;0.77;;;;;;;9.08;100.00;96542.63;15276005;19;20373;-49
2023/04/01 01:55:33;;;;;;;2.35;0.82;;;;;;;9.02;100.00;96546.94;15274988;19;20043;-48
2023/04/01 02:01:03;;;;;;;1.77;0.70;;;;;;;9.08;100.00;96545.31;15273364;19;20475;-50
2023/04/01 02:06:33;;;;;;;1.85;0.70;;;;;;;9.06;100.00;96548.19;15271250;19;20086;-50
2023/04/01 02:12:05;;;;;;;1.67;0.65;;;;;;;9.05;100.00;96551.94;15274646;19;20545;-49
2023/04/01 02:17:32;;;;;;;2.28;0.75;;;;;;;9.09;100.00;96545.09;15275931;19;20656;-46
2023/04/01 02:23:00;;;;;;;3.15;0.80;;;;;;;9.08;100.00;96546.13;15277823;19;20484;-49
2023/04/01 02:28:29;;;;;;;2.03;0.60;;;;;;;9.02;100.00;96548.78;15279990;19;20018;-48
2023/04/01 02:33:55;;;;;;;2.85;0.50;;;;;;;9.03;100.00;96548.59;15293265;19;20022;-49
2023/04/01 02:39:21;;;;;;;1.95;0.60;;;;;;;8.97;100.00;96548.56;15286096;19;20077;-47
2023/04/01 02:44:48;;;;;;;1.90;0.73;;;;;;;8.94;100.00;96549.75;15296181;19;20020;-47
2023/04/01 02:50:13;;;;;;;2.08;0.60;;;;;;;8.87;100.00;96555.13;15298389;19;20044;-50
2023/04/01 02:55:37;;;;;;;1.50;0.70;;;;;;;8.88;100.00;96556.75;15347721;19;20025;-46
2023/04/01 03:01:05;;;;;;;1.65;0.60;;;;;;;8.90;100.00;96552.03;15286147;19;20078;-49
2023/04/01 03:06:30;;;;;;;0.73;0.40;;;;;;;8.92;100.00;96555.34;15290710;19;20033;-46
2023/04/01 03:11:55;;;;;;;1.63;0.60;;;;;;;8.82;100.00;96557.56;15273601;19;20018;-48
2023/04/01 03:17:32;;;;;;;1.20;0.50;;;;;;;8.84;100.00;96549.28;15265286;19;20047;-50
2023/04/01 03:22:57;;;;;;;2.83;0.50;;;;;;;8.74;100.00;96557.72;15271914;19;20014;-48
2023/04/01 03:28:22;;;;;;;1.17;0.40;;;;;;;8.77;100.00;96559.97;15272672;19;20349;-49
2023/04/01 03:33:50;;;;;;;1.48;0.50;;;;;;;8.71;100.00;96558.09;15288037;19;20028;-47
2023/04/01 03:39:18;;;;;;;1.30;0.60;;;;;;;8.72;100.00;96567.81;15282854;19;20511;-48
2023/04/01 03:44:43;;;;;;;1.90;0.50;;;;;;;8.73;100.00;96556.03;15286128;19;20089;-48
2023/04/01 03:50:10;;;;;;;1.10;0.50;;;;;;;8.74;100.00;96557.72;15279386;19;20018;-46
2023/04/01 03:55:35;;;;;;;1.30;0.50;;;;;;;8.84;100.00;96560.03;15281287;19;20102;-48
2023/04/01 04:01:00;;;;;;;1.30;0.50;;;;;;;8.83;100.00;96558.38;15280748;19;20023;-47
2023/04/01 04:06:28;;;;;;;1.45;0.60;;;;;;;8.82;100.00;96562.91;15280498;19;20056;-49
2023/04/01 04:11:59;;;;;;;1.67;0.60;;;;;;;8.81;100.00;96563.94;15275811;19;20015;-47
2023/04/01 04:17:24;;;;;;;1.07;0.50;;;;;;;8.83;100.00;96586.06;15278674;19;20022;-52
2023/04/01 04:22:51;;;;;;;1.15;0.40;;;;;;;8.90;100.00;96570.81;15279568;19;20035;-51
2023/04/01 04:28:16;;;;;;;1.88;0.60;;;;;;;8.89;100.00;96579.91;15283282;19;20019;-50
2023/04/01 04:33:43;;;;;;;0.70;0.25;;;;;;;8.93;100.00;96581.16;15283352;19;20018;-51
2023/04/01 04:39:11;;;;;;;1.42;0.50;;;;;;;8.89;100.00;96582.56;15279467;19;20014;-47
2023/04/01 04:44:36;;;;;;;1.27;0.50;;;;;;;8.84;100.00;96587.72;15283209;19;20026;-47
2023/04/01 04:50:01;;;;;;;1.73;0.60;;;;;;;8.87;100.00;96598.09;15275044;19;20044;-47
2023/04/01 04:55:29;;;;;;;1.25;0.32;;;;;;;8.85;100.00;96589.38;15278262;19;20023;-48
2023/04/01 05:01:24;;;;;;;1.60;0.50;;;;;;;8.90;100.00;96589.63;15273464;19;20022;-47
2023/04/01 05:06:49;;;;;;;2.58;0.70;;;;;;;8.96;100.00;96592.56;15277628;19;20059;-49
2023/04/01 05:12:24;;;;;;;1.20;0.50;;;;;;;8.98;100.00;96603.94;15264931;19;20026;-47
2023/04/01 05:17:51;;;;;;;2.13;0.43;;;;;;;8.99;100.00;96597.53;15273012;19;20454;-48
2023/04/01 05:23:16;;;;;;;1.58;0.50;;;;;;;9.02;100.00;96607.88;15279728;19;20026;-45
2023/04/01 05:28:44;;;;;;;1.58;0.60;;;;;;;8.98;100.00;96612.00;15273296;19;20499;-46
2023/04/01 05:34:08;;;;;;;1.50;0.60;;;;;;;9.03;100.00;96613.06;15272981;19;20574;-44
2023/04/01 05:39:33;;;;;;;1.55;0.40;;;;;;;9.02;100.00;96616.78;15268097;19;20477;-46
2023/04/01 05:45:00;;;;;;;1.63;0.70;;;;;;;9.05;100.00;96616.38;15275007;19;20078;-45
2023/04/01 05:50:44;;;;;;;1.60;0.50;;;;;;;9.03;100.00;96623.81;15267389;19;20471;-45
2023/04/01 05:56:11;;;;;;;1.15;0.47;;;;;;;9.08;100.00;96626.72;15272821;19;20019;-45
2023/04/01 06:01:40;;;;;;;1.92;0.60;;;;;;;9.03;100.00;96623.81;15270210;19;20010;-47
2023/04/01 06:07:05;;;;;;;1.70;0.60;;;;;;;9.10;100.00;96627.34;15271661;19;20022;-45
2023/04/01 06:12:48;;;;;;;2.00;0.60;;;;;;;9.04;100.00;96627.31;15268628;19;20010;-45
2023/04/01 06:18:44;;;;;;;1.85;0.50;;;;;;;9.10;100.00;96630.03;15268989;19;20410;-46
2023/04/01 06:24:27;;;;;;;2.20;0.70;;;;;;;9.13;100.00;96631.50;15266462;19;20093;-46
2023/04/01 06:30:15;;;;;;;1.20;0.60;;;;;;;9.12;100.00;96640.59;15271598;19;20042;-45
2023/04/01 06:36:13;;;;;;;2.30;0.60;;;;;;;9.10;100.00;96639.97;15269068;19;20022;-46
2023/04/01 06:42:07;;;;;;;1.25;0.50;;;;;;;9.10;100.00;96634.59;15267973;19;20297;-47
2023/04/01 06:47:44;;;;;;;1.65;0.50;;;;;;;9.11;100.00;96641.63;15268452;19;20020;-45
2023/04/01 06:53:35;;;;;;;2.05;0.68;;;;;;;9.13;100.00;96649.50;15272361;19;20011;-46
2023/04/01 06:59:36;;;;;;;3.35;0.50;;;;;;;9.07;100.00;96649.22;15258984;19;20022;-49
2023/04/01 07:05:05;;;;;;;1.98;0.50;;;;;;;9.09;100.00;96655.25;15269138;19;20363;-48
2023/04/01 07:10:45;;;;;;;1.63;0.60;;;;;;;9.05;100.00;96658.50;15263014;19;20340;-50
2023/04/01 07:16:56;;;;;;;1.73;0.60;;;;;;;9.06;100.00;96654.81;15271171;19;20785;-46
2023/04/01 07:22:36;;;;;;;2.70;0.70;;;;;;;9.12;100.00;96654.00;15277062;19;20022;-47
2023/04/01 07:28:16;;;;;;;1.00;0.40;;;;;;;9.20;100.00;96661.94;15278620;19;20021;-49
2023/04/01 07:34:00;;;;;;;2.17;0.52;;;;;;;9.25;100.00;96662.16;15284346;19;20017;-47
2023/04/01 07:39:35;;;;;;;1.33;0.52;;;;;;;9.39;100.00;96660.41;15277265;19;20018;-46
2023/04/01 07:45:31;;;;;;;1.52;0.50;;;;;;;9.57;100.00;96661.75;15279911;19;20454;-45
2023/04/01 07:51:04;;;;;;;2.25;0.50;;;;;;;9.77;100.00;96656.47;15280170;19;20360;-46
2023/04/01 07:56:35;;;;;;;1.05;0.60;;;;;;;10.02;100.00;96655.97;15281751;19;20026;-47
2023/04/01 08:02:16;;;;;;;1.77;0.60;;;;;;;10.21;100.00;96667.81;15273075;19;20102;-46
2023/04/01 08:07:54;;;;;;;0.57;0.30;;;;;;;10.31;100.00;96656.66;15278560;19;20022;-46
2023/04/01 08:13:53;;;;;;;0.90;0.32;;;;;;;10.46;100.00;96662.72;15276287;19;20048;-46
2023/04/01 08:19:24;;;;;;;;;;;;;;;10.61;100.00;96661.72;15277575;19;20018;-46
2023/04/01 08:24:54;;;;;;;0.88;0.47;;;;;;;10.77;100.00;96676.66;15279702;19;19927;-47
2023/04/01 08:30:21;;;;;;;2.03;0.50;;;;;;;10.81;100.00;96658.22;15280325;19;20058;-45
2023/04/01 08:35:53;;;;;;;1.40;0.40;;;;;;;11.05;100.00;96668.38;15276902;19;20455;-49
2023/04/01 08:41:47;;;;;;;0.63;0.20;;;;;;;10.89;100.00;96668.78;15278598;19;20036;-47
2023/04/01 08:47:59;;;;;;;0.68;0.40;;;;;;;10.90;100.00;96670.44;15280619;19;20014;-45
2023/04/01 08:53:37;;;;;;;0.47;0.30;;;;;;;10.79;100.00;96674.59;15280380;19;20022;-46
2023/04/01 08:59:19;;;;;;;0.75;0.20;;;;;;;10.81;100.00;96671.69;15276336;19;20387;-46
2023/04/01 09:05:38;;;;;;;0.65;0.32;;;;;;;10.70;100.00;96683.91;15274249;19;20030;-46
2023/04/01 09:11:17;;;;;;;1.90;0.32;;;;;;;10.61;100.00;96691.34;15276116;19;20024;-46
2023/04/01 09:17:09;;;;;;;0.73;0.35;;;;;;;10.45;100.00;96688.00;15281182;19;20367;-45
2023/04/01 09:22:51;;;;;;;0.88;0.30;;;;;;;10.60;100.00;96695.06;15272769;19;20437;-48
2023/04/01 09:28:21;;;;;;;0.82;0.45;;;;;;;10.65;100.00;96706.03;15276872;19;20034;-45
2023/04/01 09:34:03;;;;;;;1.25;0.68;;;;;;;10.71;100.00;96707.94;15275414;19;20010;-46
2023/04/01 09:39:57;;;;;;;2.10;1.42;;;;;;;10.87;100.00;96708.59;15264441;19;20526;-46
2023/04/01 09:45:46;;;;;;;1.02;0.77;;;;;;;10.77;100.00;96711.69;15271615;19;20386;-47
2023/04/01 09:51:21;;;;;;;0.73;0.40;;;;;;;10.79;100.00;96713.13;15272736;19;20025;-49
2023/04/01 09:57:29;;;;;;;0.80;0.60;;;;;;;10.93;100.00;96713.13;15271268;19;20023;-52
2023/04/01 10:03:31;;;;;;;0.95;0.47;;;;;;;10.90;100.00;96706.31;15271352;19;20028;-51
2023/04/01 10:09:25;;;;;;;0.57;0.30;;;;;;;10.89;100.00;96714.56;15267735;19;20015;-48
2023/04/01 10:15:31;;;;;;;0.25;0.20;;;;;;;10.79;100.00;96715.81;15273650;19;20010;-52
2023/04/01 10:21:17;;;;;;;0.22;0.20;;;;;;;11.03;100.00;96724.34;15267826;19;20086;-46
2023/04/01 10:27:03;;;;;;;1.00;0.20;;;;;;;10.99;100.00;96715.03;15269874;19;20022;-47
2023/04/01 10:33:18;;;;;;;0.57;0.30;;;;;;;10.64;100.00;96723.25;15270669;19;20010;-48
2023/04/01 10:39:25;;;;;;;0.20;0.10;;;;;;;10.51;100.00;96720.53;15269930;19;20031;-50
2023/04/01 10:45:49;;;;;;;0.63;0.40;;;;;;;10.46;100.00;96724.66;15239738;19;20007;-48
2023/04/01 10:51:26;;;;;;;0.22;0.20;;;;;;;10.53;100.00;96729.22;15274601;19;20017;-46
2023/04/01 10:57:00;;;;;;;0.60;0.20;;;;;;;10.46;100.00;96724.66;15281798;19;20023;-46
2023/04/01 11:03:15;;;;;;;0.20;0.20;;;;;;;10.39;100.00;96717.59;15274867;19;20364;-47
2023/04/01 11:09:37;;;;;;;0.35;0.20;;;;;;;10.38;100.00;96722.16;15280878;19;20019;-45
2023/04/01 11:15:41;;;;;;;0.20;0.20;;;;;;;10.30;100.00;96730.34;15269353;19;20596;-46
2023/04/01 11:21:49;;;;;;;0.50;0.30;;;;;;;10.44;100.00;96737.47;15283103;19;20086;-46
2023/04/01 11:27:53;;;;;;;0.63;0.40;;;;;;;10.64;100.00;96736.72;15289510;19;20603;-49
2023/04/01 11:33:26;;;;;;;0.95;0.50;;;;;;;10.73;100.00;96729.25;15284436;19;20354;-50
2023/04/01 11:39:21;;;;;;;0.70;0.30;;;;;;;10.96;100.00;96731.59;15285164;19;20014;-49
2023/04/01 11:44:56;;;;;;;0.60;0.47;;;;;;;11.28;100.00;96726.44;15284821;19;20640;-45
2023/04/01 11:50:32;;;;;;;0.60;0.60;;;;;;;11.55;100.00;96732.63;15287287;19;20366;-50
2023/04/01 11:56:10;;;;;;;0.20;0.10;;;;;;;11.52;100.00;96734.91;15285985;19;20482;-47
2023/04/01 12:01:43;;;;;;;0.32;0.13;;;;;;;11.59;100.00;96732.22;15281853;19;20042;-47
2023/04/01 12:07:21;;;;;;;0.20;0.20;;;;;;;11.61;100.00;96735.53;15285647;19;20070;-47
2023/04/01 12:13:01;;;;;;;0.70;0.60;;;;;;;11.59;100.00;96733.03;15283374;19;20010;-50
2023/04/01 12:18:36;;;;;;;0.68;0.30;;;;;;;11.61;100.00;96736.34;15280998;19;20355;-49
2023/04/01 12:24:24;;;;;;;0.52;0.40;;;;;;;11.88;100.00;96736.31;14773862;19;10000110;-48
2023/04/01 12:30:09;;;;;;;0.60;0.28;;;;;;;11.99;100.00;96733.00;15283424;19;20017;-49
2023/04/01 12:35:42;;;;;;;0.47;0.20;;;;;;;12.10;100.00;96739.63;15285933;19;20017;-48
2023/04/01 12:41:17;;;;;;;0.40;0.40;;;;;;;12.11;100.00;96735.03;15279142;19;20100;-46
2023/04/01 12:47:06;;;;;;;0.30;0.30;;;;;;;12.21;100.00;96740.00;15282384;19;20014;-46
2023/04/01 12:52:41;;;;;;;0.20;0.20;;;;;;;12.27;100.00;96742.66;15282358;19;20015;-47
2023/04/01 12:58:54;;;;;;;0.28;0.10;;;;;;;12.24;100.00;96734.13;15282709;19;20018;-50
2023/04/01 13:04:50;;;;;;;0.15;0.10;;;;;;;12.15;100.00;96737.09;15280800;19;20474;-50
2023/04/01 13:10:27;;;;;;;0.28;0.28;;;;;;;12.35;100.00;96746.16;15280373;19;20015;-46
2023/04/01 13:16:01;;;;;;;0.30;0.10;;;;;;;12.25;100.00;96750.16;15278094;19;20034;-49
2023/04/01 13:21:38;;;;;;;0.20;0.20;;;;;;;12.20;100.00;96744.53;15277209;19;20021;-48
2023/04/01 13:27:14;;;;;;;0.10;0.10;;;;;;;12.36;100.00;96751.34;15277520;19;20496;-45
2023/04/01 13:32:47;;;;;;;0.32;0.10;;;;;;;12.44;100.00;96750.28;15279078;19;20078;-45
2023/04/01 13:38:28;;;;;;;0.43;0.38;;;;;;;12.49;100.00;96745.88;15277983;19;20021;-46
2023/04/01 13:44:02;;;;;;;0.20;0.20;;;;;;;12.71;100.00;96744.75;15270503;19;20014;-46
2023/04/01 13:49:40;;;;;;;0.57;0.38;;;;;;;12.66;100.00;96742.69;15274937;19;20062;-48
2023/04/01 13:55:43;;;;;;;0.30;0.30;;;;;;;12.44;100.00;96745.72;15270556;19;20022;-49
2023/04/01 14:01:17;;;;;;;0.30;0.30;;;;;;;12.00;100.00;96755.38;15272556;19;20031;-48
2023/04/01 14:06:54;;;;;;;0.20;0.20;;;;;;;11.80;100.00;96758.13;15274505;19;20020;-45
2023/04/01 14:12:32;;;;;;;0.30;0.10;;;;;;;11.65;100.00;96764.56;15271269;19;20018;-46
2023/04/01 14:18:09;;;;;;;0.15;0.15;;;;;;;11.77;100.00;96767.44;15271811;19;20009;-45
2023/04/01 14:23:54;;;;;;;0.40;0.20;;;;;;;11.68;100.00;96784.91;15269737;19;20010;-46
2023/04/01 14:29:31;;;;;;;0.52;0.20;;;;;;;11.64;100.00;96776.41;15266096;19;20887;-49
2023/04/01 14:35:16;;;;;;;0.10;0.10;;;;;;;11.61;100.00;96781.38;15267778;19;20014;-47
2023/04/01 14:40:58;;;;;;;1.35;0.85;;;;;;;11.57;100.00;96786.38;15274136;19;20009;-45
2023/04/01 14:47:05;;;;;;;1.15;0.93;;;;;;;11.53;100.00;96790.50;15270784;19;20066;-45
2023/04/01 14:52:38;;;;;;;4.30;1.10;;;;;;;11.55;100.00;96796.53;15269697;19;20493;-45
2023/04/01 14:58:11;;;;;;;1.10;0.90;;;;;;;11.46;100.00;96797.78;15270759;19;20046;-46
2023/04/01 15:03:40;;;;;;;1.00;0.90;;;;;;;11.52;100.00;96813.13;15260368;19;20010;-47
2023/04/01 15:09:11;;;;;;;1.40;0.40;;;;;;;11.38;100.00;96812.28;15264707;19;20021;-47
2023/04/01 15:14:58;;;;;;;0.70;0.60;;;;;;;11.46;100.00;96824.75;15268384;19;20804;-49
2023/04/01 15:20:36;;;;;;;0.65;0.65;;;;;;;11.40;100.00;96826.41;15267831;19;20017;-49
2023/04/01 15:26:20;;;;;;;0.32;0.20;;;;;;;11.32;100.00;96830.13;15270798;19;20019;-47
2023/04/01 15:31:52;;;;;;;0.52;0.28;;;;;;;11.28;100.00;96828.84;15263547;19;20029;-47
2023/04/01 15:37:25;;;;;;;0.10;0.10;;;;;;;11.29;100.00;96830.53;15274898;19;20014;-48
2023/04/01 15:43:05;;;;;;;0.40;0.40;;;;;;;11.33;100.00;96847.13;15280260;19;20022;-46
2023/04/01 15:48:53;;;;;;;0.60;0.50;;;;;;;11.34;100.00;96849.63;15286195;19;20028;-46
2023/04/01 15:54:49;;;;;;;0.40;0.38;;;;;;;11.36;100.00;96858.31;15281236;19;20017;-50
2023/04/01 16:00:37;;;;;;;0.35;0.35;;;;;;;11.43;100.00;96866.41;15283577;19;20014;-48
2023/04/01 16:06:17;;;;;;;0.52;0.32;;;;;;;11.73;100.00;96868.75;15278694;19;20083;-44
2023/04/01 16:11:52;;;;;;;0.43;0.28;;;;;;;11.58;100.00;96868.94;15278501;19;20365;-48
2023/04/01 16:17:40;;;;;;;0.30;0.30;;;;;;;11.37;100.00;96868.06;15278061;19;20010;-46
2023/04/01 16:23:11;;;;;;;0.20;0.20;;;;;;;11.32;100.00;96873.25;15278406;19;20028;-46
2023/04/01 16:28:42;;;;;;;0.57;0.20;;;;;;;11.36;100.00;96879.88;15276224;19;20018;-46
2023/04/01 16:34:18;;;;;;;0.43;0.40;;;;;;;11.35;100.00;96893.56;15274390;19;20024;-49
2023/04/01 16:39:50;;;;;;;0.98;0.43;;;;;;;11.25;100.00;96902.03;15268059;19;20483;-44
2023/04/01 16:45:30;;;;;;;0.32;0.30;;;;;;;11.28;100.00;96912.44;15272843;19;20969;-45
2023/04/01 16:51:02;;;;;;;0.52;0.47;;;;;;;11.31;100.00;96914.72;15275165;19;20262;-49
2023/04/01 16:56:31;;;;;;;0.60;0.60;;;;;;;11.31;100.00;96917.41;15274610;19;20093;-46
2023/04/01 17:02:04;;;;;;;1.00;0.47;;;;;;;11.19;100.00;96921.75;15273216;19;20014;-48
2023/04/01 17:07:45;;;;;;;0.40;0.40;;;;;;;11.14;100.00;96937.66;15273849;19;20022;-45
2023/04/01 20:03:14;;;;;;;0.95;0.30;;;;;;;9.03;100.00;97211.22;15294504;19;19999;-85
2023/04/01 20:14:29;;;;;;;0.22;0.10;;;;;;;8.80;100.00;97225.50;15335733;19;20006;-86
2023/04/01 20:20:06;;;;;;;0.40;0.40;;;;;;;8.77;100.00;97247.34;15308479;19;20022;-88
2023/04/01 20:25:43;;;;;;;0.20;0.20;;;;;;;8.76;100.00;97243.00;15300164;19;20237;-88
2023/04/01 20:31:33;;;;;;;0.95;0.20;;;;;;;8.72;100.00;97255.13;15304908;19;20477;-88
2023/04/01 20:37:17;;;;;;;0.20;0.10;;;;;;;8.73;100.00;97256.78;15277952;19;20018;-89
2023/04/01 20:43:08;;;;;;;0.38;0.35;;;;;;;8.68;100.00;97269.91;15299584;19;20018;-87
2023/04/01 20:48:59;;;;;;;1.02;0.90;;;;;;;8.71;100.00;97280.28;15302881;19;20477;-89
2023/04/01 20:54:34;;;;;;;;;;;;;;;8.73;100.00;97291.69;15298823;19;20455;-88
2023/04/01 21:00:20;;;;;;;1.70;1.60;;;;;;;8.87;100.00;97304.38;15294356;19;20351;-88
2023/04/01 21:05:59;;;;;;;1.00;1.00;;;;;;;8.83;100.00;97316.47;15303400;19;20022;-86
2023/04/01 21:11:37;;;;;;;0.95;0.90;;;;;;;8.87;100.00;97312.41;15329890;19;20010;-85
2023/04/01 21:17:10;;;;;;;1.23;1.08;;;;;;;8.87;100.00;97316.94;15315995;19;20086;-86
2023/04/01 21:22:50;;;;;;;1.35;1.00;;;;;;;8.88;100.00;97322.13;15313998;19;20452;-85
2023/04/01 21:28:35;;;;;;;1.00;1.00;;;;;;;8.89;100.00;97326.47;15327085;19;20477;-88
2023/04/01 21:34:21;;;;;;;1.23;1.13;;;;;;;8.92;100.00;97336.88;15299219;19;20075;-87
2023/04/01 21:40:04;;;;;;;1.95;1.85;;;;;;;8.98;100.00;97342.56;15295553;19;20017;-85
2023/04/01 21:45:51;;;;;;;2.03;1.92;;;;;;;8.94;100.00;97350.97;15302578;19;20014;-86
2023/04/01 21:51:45;;;;;;;1.20;1.20;;;;;;;8.93;100.00;97359.22;15302719;19;20015;-86
2023/04/01 21:57:41;;;;;;;1.80;1.70;;;;;;;8.91;100.00;97363.94;15297065;19;20092;-86
2023/04/01 22:03:41;;;;;;;2.22;2.08;;;;;;;8.87;100.00;97373.34;15292339;19;20033;-85
2023/04/01 22:09:15;;;;;;;2.30;2.10;;;;;;;8.85;100.00;97375.38;15297808;19;20011;-88
2023/04/01 22:14:46;;;;;;;2.53;2.28;;;;;;;8.88;100.00;97378.53;15302691;19;20308;-87
2023/04/01 22:20:23;;;;;;;2.80;2.60;;;;;;;8.88;100.00;97391.97;15326310;19;20018;-86
2023/04/01 22:25:59;;;;;;;2.60;2.40;;;;;;;8.86;100.00;97399.38;14788445;19;10000832;-86
2023/04/01 22:31:28;;;;;;;2.10;1.90;;;;;;;8.85;100.00;97413.81;15302063;19;20029;-87
2023/04/01 22:37:04;;;;;;;1.50;1.40;;;;;;;8.69;100.00;97422.78;15303220;19;20032;-87
2023/04/01 22:42:44;;;;;;;1.45;1.33;;;;;;;8.57;100.00;97416.94;15299437;19;20013;-87
2023/04/01 22:48:15;;;;;;;1.58;1.25;;;;;;;8.45;100.00;97421.81;15310676;19;20071;-85
2023/04/01 22:53:54;;;;;;;1.37;1.30;;;;;;;8.32;100.00;97443.00;15317573;19;20028;-87
2023/04/01 22:59:25;;;;;;;1.25;1.25;;;;;;;8.08;100.00;97442.03;15318778;19;20010;-85
2023/04/01 23:04:52;;;;;;;1.20;1.20;;;;;;;8.09;100.00;97453.59;15337177;19;20066;-85
2023/04/01 23:10:25;;;;;;;1.00;1.00;;;;;;;7.97;100.00;97461.97;15370485;19;20027;-85
2023/04/01 23:15:50;;;;;;;1.92;1.10;;;;;;;7.84;100.00;97464.31;15373828;19;20042;-85
2023/04/01 23:21:19;;;;;;;1.25;1.20;;;;;;;7.69;100.00;97473.06;15375970;19;20039;-85
2023/04/01 23:26:54;;;;;;;1.15;1.15;;;;;;;7.64;100.00;97494.16;15339436;19;20037;-86
2023/04/01 23:32:27;;;;;;;1.40;1.30;;;;;;;7.60;100.00;97498.16;15320095;19;20037;-86
2023/04/01 23:37:52;;;;;;;2.50;2.40;;;;;;;7.56;100.00;97507.53;15313732;19;20020;-87
2023/04/01 23:43:26;;;;;;;1.77;1.67;;;;;;;7.34;100.00;97520.56;15314376;19;20474;-85
2023/04/01 23:48:55;;;;;;;1.80;1.70;;;;;;;7.19;100.00;97523.00;15308762;19;20167;-85
2023/04/01 23:54:22;;;;;;;1.90;1.80;;;;;;;7.04;100.00;97530.81;15308913;19;20026;-86
2023/04/01 23:59:49;;;;;;;2.70;2.53;;;;;;;7.01;100.00;97547.19;15305713;19;20043;-86
